createdAt,value
2023-07-17T00:01:41.424Z,86512.63
2023-07-17T00:04:08.163Z,86505.69
2023-07-17T00:06:34.877Z,86505.94
2023-07-17T00:09:01.526Z,86509.13
2023-07-17T00:11:28.125Z,86515.28
2023-07-17T00:13:55.870Z,86510.38
2023-07-17T00:16:22.839Z,86499.06
2023-07-17T00:18:49.487Z,86508.75
2023-07-17T00:21:16.428Z,86506.25
2023-07-17T00:23:43.285Z,86506.78
2023-07-17T00:26:09.922Z,86498.38
2023-07-17T00:28:36.601Z,86498.25
2023-07-17T00:31:03.203Z,86500.09
2023-07-17T00:33:29.910Z,86499.91
2023-07-17T00:35:56.593Z,86499.13
2023-07-17T00:38:23.347Z,86493.53
2023-07-17T00:40:50.024Z,86493.88
2023-07-17T00:43:16.694Z,86493.06
2023-07-17T00:45:44.125Z,86488.16
2023-07-17T00:48:10.772Z,86496.22
2023-07-17T00:50:38.091Z,86491.97
2023-07-17T00:53:05.202Z,86491.84
2023-07-17T00:55:32.122Z,86494.16
2023-07-17T00:57:58.742Z,86493.72
2023-07-17T01:00:25.369Z,86494.19
2023-07-17T01:02:52.216Z,86499.38
2023-07-17T01:05:18.991Z,86494.38
2023-07-17T01:07:45.656Z,86494.97
2023-07-17T01:10:12.329Z,86492.63
2023-07-17T01:12:38.921Z,86493.88
2023-07-17T01:15:05.663Z,86491.94
2023-07-17T01:17:32.254Z,86490.38
2023-07-17T01:19:59.019Z,86488.13
2023-07-17T01:22:30.186Z,86487.41
2023-07-17T01:24:56.878Z,86497.00
2023-07-17T01:27:23.444Z,86494.22
2023-07-17T01:29:50.085Z,86491.50
2023-07-17T01:32:16.777Z,86497.50
2023-07-17T01:34:43.601Z,86494.81
2023-07-17T01:37:10.238Z,86492.56
2023-07-17T01:39:36.891Z,86494.69
2023-07-17T01:42:03.529Z,86493.91
2023-07-17T01:44:31.619Z,86489.63
2023-07-17T01:46:58.454Z,86496.47
2023-07-17T01:49:25.178Z,86489.06
2023-07-17T01:51:51.844Z,86489.06
2023-07-17T01:54:18.453Z,86494.38
2023-07-17T01:56:45.190Z,86498.34
2023-07-17T01:59:11.820Z,86500.41
2023-07-17T02:01:38.493Z,86497.81
2023-07-17T02:04:05.238Z,86503.19
2023-07-17T02:06:31.830Z,86499.81
2023-07-17T02:08:58.462Z,86498.28
2023-07-17T02:11:28.496Z,86497.50
2023-07-17T02:13:55.146Z,86501.63
2023-07-17T02:16:23.915Z,86496.72
2023-07-17T02:18:52.775Z,86501.63
2023-07-17T02:21:19.636Z,86505.13
2023-07-17T02:23:46.526Z,86491.44
2023-07-17T02:26:13.268Z,86497.03
2023-07-17T02:28:39.906Z,86494.94
2023-07-17T02:31:06.855Z,86499.69
2023-07-17T02:33:33.493Z,86498.22
2023-07-17T02:36:00.183Z,86489.47
2023-07-17T02:38:27.142Z,86488.06
2023-07-17T02:40:53.771Z,86488.06
2023-07-17T02:43:20.444Z,86490.19
2023-07-17T02:45:47.205Z,86484.81
2023-07-17T02:48:13.861Z,86487.22
2023-07-17T02:50:40.476Z,86482.69
2023-07-17T02:53:07.128Z,86478.56
2023-07-17T02:55:33.686Z,86481.94
2023-07-17T02:58:00.345Z,86492.69
2023-07-17T03:00:27.023Z,86484.88
2023-07-17T03:02:54.611Z,86482.63
2023-07-17T03:05:21.255Z,86483.72
2023-07-17T03:07:50.516Z,86490.66
2023-07-17T03:10:17.149Z,86485.81
2023-07-17T03:12:43.877Z,86492.06
2023-07-17T03:15:10.624Z,86487.94
2023-07-17T03:17:37.351Z,86487.22
2023-07-17T03:20:05.156Z,86490.56
2023-07-17T03:22:33.108Z,86493.09
2023-07-17T03:24:59.926Z,86499.28
2023-07-17T03:27:26.510Z,86500.78
2023-07-17T03:29:53.093Z,86504.13
2023-07-17T03:32:19.644Z,86497.19
2023-07-17T03:34:46.297Z,86508.09
2023-07-17T03:37:13.466Z,86510.03
2023-07-17T03:39:40.195Z,86508.19
2023-07-17T03:42:11.701Z,86514.22
2023-07-17T03:44:39.142Z,86502.63
2023-07-17T03:47:06.478Z,86513.53
2023-07-17T03:49:33.209Z,86506.00
2023-07-17T03:51:59.814Z,86505.91
2023-07-17T03:54:26.504Z,86502.31
2023-07-17T03:56:53.214Z,86507.84
2023-07-17T03:59:28.665Z,86510.66
2023-07-17T04:01:55.234Z,86505.81
2023-07-17T04:04:21.885Z,86510.66
2023-07-17T04:06:48.560Z,86512.03
2023-07-17T04:09:18.243Z,86505.38
2023-07-17T04:11:47.770Z,86507.84
2023-07-17T04:14:14.712Z,86512.66
2023-07-17T04:16:41.467Z,86509.25
2023-07-17T04:19:08.253Z,86513.38
2023-07-17T04:21:34.947Z,86513.38
2023-07-17T04:24:01.674Z,86513.22
2023-07-17T04:26:28.377Z,86512.59
2023-07-17T04:28:54.992Z,86518.06
2023-07-17T04:31:21.889Z,86520.16
2023-07-17T04:33:49.290Z,86530.97
2023-07-17T04:36:15.904Z,86529.66
2023-07-17T04:38:42.743Z,86531.53
2023-07-17T04:41:09.333Z,86531.53
2023-07-17T04:43:35.934Z,86533.53
2023-07-17T04:46:02.560Z,86530.91
2023-07-17T04:48:29.198Z,86533.53
2023-07-17T04:50:55.819Z,86527.41
2023-07-17T04:53:22.445Z,86537.69
2023-07-17T04:55:49.929Z,86533.53
2023-07-17T04:58:16.868Z,86539.06
2023-07-17T05:00:47.621Z,86535.97
2023-07-17T05:03:15.008Z,86543.47
2023-07-17T05:05:41.923Z,86546.75
2023-07-17T05:08:08.561Z,86545.97
2023-07-17T05:10:35.167Z,86545.06
2023-07-17T05:13:01.790Z,86543.44
2023-07-17T05:15:28.471Z,86549.59
2023-07-17T05:17:55.154Z,86551.19
2023-07-17T05:20:21.776Z,86556.38
2023-07-17T05:22:48.595Z,86555.34
2023-07-17T05:25:15.259Z,86562.75
2023-07-17T05:27:41.989Z,86559.25
2023-07-17T05:30:08.706Z,86560.59
2023-07-17T05:32:35.313Z,86563.19
2023-07-17T05:35:01.955Z,86555.59
2023-07-17T05:37:28.791Z,86557.41
2023-07-17T05:39:55.402Z,86560.16
2023-07-17T05:42:22.003Z,86554.59
2023-07-17T05:44:48.579Z,86557.13
2023-07-17T05:47:15.226Z,86560.28
2023-07-17T05:49:41.805Z,86564.44
2023-07-17T05:52:09.179Z,86552.72
2023-07-17T05:54:35.763Z,86562.09
2023-07-17T05:57:02.392Z,86555.88
2023-07-17T05:59:29.200Z,86559.13
2023-07-17T06:01:55.810Z,86563.59
2023-07-17T06:04:22.498Z,86565.69
2023-07-17T06:06:49.153Z,86560.91
2023-07-17T06:09:15.888Z,86557.56
2023-07-17T06:11:42.449Z,86559.34
2023-07-17T06:14:09.174Z,86560.75
2023-07-17T06:16:35.784Z,86562.72
2023-07-17T06:19:02.389Z,86558.44
2023-07-17T06:21:28.957Z,86557.34
2023-07-17T06:23:55.563Z,86558.88
2023-07-17T06:26:22.158Z,86561.47
2023-07-17T06:28:48.734Z,86557.97
2023-07-17T06:31:15.917Z,86554.44
2023-07-17T06:33:42.689Z,86559.00
2023-07-17T06:36:09.304Z,86557.59
2023-07-17T06:38:35.870Z,86557.06
2023-07-17T06:41:02.489Z,86560.44
2023-07-17T06:43:29.143Z,86558.22
2023-07-17T06:45:55.734Z,86558.84
2023-07-17T06:48:22.443Z,86557.78
2023-07-17T06:50:52.212Z,86553.66
2023-07-17T06:53:18.833Z,86554.19
2023-07-17T06:55:45.498Z,86558.22
2023-07-17T06:58:12.141Z,86550.06
2023-07-17T07:00:38.780Z,86555.50
2023-07-17T07:03:05.432Z,86550.53
2023-07-17T07:05:32.078Z,86552.00
2023-07-17T07:07:58.740Z,86552.63
2023-07-17T07:10:25.380Z,86558.69
2023-07-17T07:12:51.986Z,86557.84
2023-07-17T07:15:18.682Z,86552.56
2023-07-17T07:17:45.536Z,86558.84
2023-07-17T07:20:12.627Z,86551.31
2023-07-17T07:22:39.402Z,86552.78
2023-07-17T07:25:07.081Z,86551.31
2023-07-17T07:27:33.717Z,86553.25
2023-07-17T07:30:00.428Z,86554.03
2023-07-17T07:32:27.139Z,86557.84
2023-07-17T07:34:53.776Z,86551.84
2023-07-17T07:37:20.371Z,86549.75
2023-07-17T07:39:46.988Z,86552.56
2023-07-17T07:42:13.652Z,86548.56
2023-07-17T07:44:40.224Z,86549.22
2023-07-17T07:47:06.919Z,86548.41
2023-07-17T07:49:33.523Z,86552.41
2023-07-17T07:52:00.172Z,86545.69
2023-07-17T07:54:26.813Z,86545.00
2023-07-17T07:56:53.458Z,86542.03
2023-07-17T07:59:20.005Z,86537.34
2023-07-17T08:01:46.731Z,86542.28
2023-07-17T08:04:13.379Z,86534.16
2023-07-17T08:06:40.010Z,86538.22
2023-07-17T08:09:06.607Z,86541.19
2023-07-17T08:11:33.216Z,86538.84
2023-07-17T08:13:59.811Z,86541.50
2023-07-17T08:16:26.545Z,86539.56
2023-07-17T08:18:53.137Z,86540.94
2023-07-17T08:21:19.833Z,86542.81
2023-07-17T08:23:47.247Z,86536.72
2023-07-17T08:26:13.882Z,86545.53
2023-07-17T08:28:40.592Z,86545.00
2023-07-17T08:31:07.279Z,86536.09
2023-07-17T08:33:34.514Z,86531.84
2023-07-17T08:36:01.211Z,86537.28
2023-07-17T08:38:29.298Z,86546.22
2023-07-17T08:40:57.701Z,86536.72
2023-07-17T08:43:24.519Z,86538.13
2023-07-17T08:45:51.900Z,86534.63
2023-07-17T08:48:18.634Z,86534.47
2023-07-17T08:50:45.287Z,86536.56
2023-07-17T08:53:12.502Z,86539.94
2023-07-17T08:55:39.442Z,86535.78
2023-07-17T08:58:06.033Z,86540.63
2023-07-17T09:00:32.733Z,86535.88
2023-07-17T09:02:59.419Z,86533.06
2023-07-17T09:05:26.102Z,86529.03
2023-07-17T09:07:52.736Z,86532.00
2023-07-17T09:10:23.329Z,86533.78
2023-07-17T09:12:50.648Z,86535.16
2023-07-17T09:15:17.464Z,86550.19
2023-07-17T09:17:44.374Z,86544.13
2023-07-17T09:20:12.213Z,86543.44
2023-07-17T09:22:38.969Z,86542.81
2023-07-17T09:25:06.306Z,86533.06
2023-07-17T09:27:42.446Z,86547.47
2023-07-17T09:30:09.599Z,86548.88
2023-07-17T09:32:36.255Z,86536.72
2023-07-17T09:35:06.205Z,86538.63
2023-07-17T09:37:33.145Z,86543.59
2023-07-17T09:40:00.168Z,86543.28
2023-07-17T09:42:26.860Z,86536.88
2023-07-17T09:44:53.808Z,86534.41
2023-07-17T09:47:21.015Z,86532.03
2023-07-17T09:49:51.790Z,86533.22
2023-07-17T09:52:18.977Z,86532.22
2023-07-17T09:54:45.676Z,86534.03
2023-07-17T09:57:12.404Z,86533.72
2023-07-17T09:59:39.658Z,86541.91
2023-07-17T10:02:06.349Z,86528.28
2023-07-17T10:04:33.482Z,86526.09
2023-07-17T10:07:00.929Z,86525.47
2023-07-17T10:09:27.638Z,86522.38
2023-07-17T10:11:54.245Z,86523.06
2023-07-17T10:14:20.851Z,86523.59
2023-07-17T10:16:47.578Z,86520.81
2023-07-17T10:19:14.418Z,86517.13
2023-07-17T10:21:57.011Z,86527.41
2023-07-17T10:24:24.376Z,86511.00
2023-07-17T10:26:51.069Z,86511.69
2023-07-17T10:29:30.506Z,86509.25
2023-07-17T10:31:59.371Z,86509.09
2023-07-17T10:34:44.586Z,86510.19
2023-07-17T10:37:18.482Z,86514.94
2023-07-17T10:39:45.077Z,86511.34
2023-07-17T10:42:12.325Z,86503.66
2023-07-17T10:44:39.218Z,86505.91
2023-07-17T10:47:06.001Z,86493.38
2023-07-17T10:49:32.825Z,86498.03
2023-07-17T10:51:59.831Z,86494.84
2023-07-17T10:54:28.117Z,86502.19
2023-07-17T10:56:54.794Z,86485.28
2023-07-17T10:59:21.606Z,86495.47
2023-07-17T11:01:48.301Z,86492.44
2023-07-17T11:04:15.444Z,86490.88
2023-07-17T11:06:42.378Z,86498.63
2023-07-17T11:09:09.040Z,86502.13
2023-07-17T11:11:35.900Z,86498.56
2023-07-17T11:14:02.591Z,86500.44
2023-07-17T11:16:29.629Z,86498.28
2023-07-17T11:18:56.714Z,86499.59
2023-07-17T11:21:24.099Z,86500.75
2023-07-17T11:23:51.601Z,86496.72
2023-07-17T11:26:18.969Z,86494.38
2023-07-17T11:28:48.450Z,86490.31
2023-07-17T11:31:36.002Z,86486.13
2023-07-17T11:34:02.898Z,86491.19
2023-07-17T11:36:48.512Z,86485.03
2023-07-17T11:39:16.281Z,86491.63
2023-07-17T11:41:47.298Z,86491.47
2023-07-17T11:44:15.685Z,86491.41
2023-07-17T11:46:42.625Z,86485.09
2023-07-17T11:49:10.097Z,86489.78
2023-07-17T11:51:41.276Z,86485.56
2023-07-17T11:54:07.921Z,86484.56
2023-07-17T11:56:38.916Z,86486.38
2023-07-17T11:59:06.894Z,86485.41
2023-07-17T12:01:35.577Z,86482.31
2023-07-17T12:04:18.256Z,86492.59
2023-07-17T12:06:44.972Z,86490.88
2023-07-17T12:09:11.683Z,86492.09
2023-07-17T12:11:38.362Z,86490.69
2023-07-17T12:14:05.044Z,86484.94
2023-07-17T12:16:32.300Z,86488.91
2023-07-17T12:18:59.365Z,86494.81
2023-07-17T12:21:30.342Z,86492.66
2023-07-17T12:23:57.653Z,86492.72
2023-07-17T12:26:24.332Z,86484.47
2023-07-17T12:28:51.213Z,86496.63
2023-07-17T12:31:18.107Z,86489.63
2023-07-17T12:33:45.503Z,86489.47
2023-07-17T12:36:12.217Z,86487.94
2023-07-17T12:38:38.876Z,86485.34
2023-07-17T12:41:05.523Z,86483.72
2023-07-17T12:43:32.246Z,86481.50
2023-07-17T12:45:58.960Z,86488.84
2023-07-17T12:48:25.922Z,86484.72
2023-07-17T12:50:55.003Z,86486.66
2023-07-17T12:53:23.427Z,86485.09
2023-07-17T12:55:58.975Z,86488.22
2023-07-17T12:58:33.166Z,86478.72
2023-07-17T13:00:59.910Z,86481.09
2023-07-17T13:03:26.604Z,86482.94
2023-07-17T13:05:53.349Z,86480.38
2023-07-17T13:08:21.397Z,86481.66
2023-07-17T13:10:48.084Z,86476.47
2023-07-17T13:13:16.350Z,86479.03
2023-07-17T13:15:43.059Z,86478.34
2023-07-17T13:18:09.758Z,86476.31
2023-07-17T13:20:36.417Z,86470.56
2023-07-17T13:23:03.115Z,86472.69
2023-07-17T13:25:29.814Z,86467.84
2023-07-17T13:27:56.462Z,86472.53
2023-07-17T13:30:23.278Z,86466.84
2023-07-17T13:32:49.981Z,86469.44
2023-07-17T13:35:16.712Z,86468.66
2023-07-17T13:37:43.411Z,86465.78
2023-07-17T13:40:10.382Z,86468.50
2023-07-17T13:42:37.048Z,86467.53
2023-07-17T13:45:03.856Z,86465.34
2023-07-17T13:47:30.552Z,86460.31
2023-07-17T13:49:57.391Z,86454.38
2023-07-17T13:52:24.316Z,86452.69
2023-07-17T13:54:50.947Z,86454.25
2023-07-17T13:57:20.223Z,86451.91
2023-07-17T13:59:47.045Z,86453.31
2023-07-17T14:02:13.790Z,86455.06
2023-07-17T14:04:41.292Z,86449.97
2023-07-17T14:07:08.907Z,86444.38
2023-07-17T14:09:35.613Z,86449.91
2023-07-17T14:12:02.233Z,86453.19
2023-07-17T14:14:30.376Z,86456.38
2023-07-17T14:16:57.114Z,86442.88
2023-07-17T14:19:24.053Z,86451.78
2023-07-17T14:21:50.977Z,86442.63
2023-07-17T14:24:17.623Z,86442.41
2023-07-17T14:26:44.267Z,86444.34
2023-07-17T14:29:10.955Z,86442.69
2023-07-17T14:31:37.683Z,86435.69
2023-07-17T14:34:04.610Z,86439.03
2023-07-17T14:36:31.236Z,86440.34
2023-07-17T14:38:57.835Z,86430.84
2023-07-17T14:41:24.438Z,86436.06
2023-07-17T14:43:51.081Z,86432.56
2023-07-17T14:46:18.262Z,86431.09
2023-07-17T14:48:45.145Z,86430.97
2023-07-17T14:51:11.812Z,86428.09
2023-07-17T14:53:38.416Z,86436.25
2023-07-17T14:56:05.229Z,86434.03
2023-07-17T14:58:32.490Z,86436.47
2023-07-17T15:00:59.204Z,86437.13
2023-07-17T15:03:27.325Z,86435.56
2023-07-17T15:05:54.031Z,86435.56
2023-07-17T15:08:20.629Z,86442.75
2023-07-17T15:10:47.282Z,86438.69
2023-07-17T15:13:13.890Z,86433.72
2023-07-17T15:15:40.531Z,86434.41
2023-07-17T15:18:09.431Z,86433.88
2023-07-17T15:20:36.266Z,86434.53
2023-07-17T15:23:02.928Z,86435.81
2023-07-17T15:25:29.685Z,86438.78
2023-07-17T15:27:56.386Z,86434.16
2023-07-17T15:30:23.090Z,86430.38
2023-07-17T15:32:49.813Z,86430.16
2023-07-17T15:35:16.594Z,86431.34
2023-07-17T15:37:43.203Z,86431.84
2023-07-17T15:40:10.874Z,86428.97
2023-07-17T15:42:37.547Z,86429.72
2023-07-17T15:45:04.861Z,86430.50
2023-07-17T15:47:31.625Z,86428.91
2023-07-17T15:49:58.425Z,86434.91
2023-07-17T15:52:25.092Z,86429.22
2023-07-17T15:54:51.754Z,86430.56
2023-07-17T15:57:18.439Z,86431.03
2023-07-17T15:59:45.135Z,86432.28
2023-07-17T16:02:12.011Z,86426.69
2023-07-17T16:04:38.708Z,86421.66
2023-07-17T16:07:05.774Z,86420.84
2023-07-17T16:09:32.379Z,86430.34
2023-07-17T16:11:59.543Z,86430.25
2023-07-17T16:14:26.165Z,86431.50
2023-07-17T16:16:52.779Z,86423.72
2023-07-17T16:19:19.461Z,86425.75
2023-07-17T16:21:46.104Z,86420.00
2023-07-17T16:24:12.735Z,86415.09
2023-07-17T16:26:39.390Z,86414.50
2023-07-17T16:29:06.750Z,86424.91
2023-07-17T16:31:35.420Z,86423.28
2023-07-17T16:34:05.088Z,86422.72
2023-07-17T16:36:33.035Z,86419.03
2023-07-17T16:38:59.722Z,86418.06
2023-07-17T16:41:26.567Z,86430.78
2023-07-17T16:43:53.235Z,86418.28
2023-07-17T16:46:20.194Z,86424.34
2023-07-17T16:48:47.326Z,86427.63
2023-07-17T16:51:14.122Z,86421.41
2023-07-17T16:53:41.426Z,86419.22
2023-07-17T16:56:08.143Z,86420.56
2023-07-17T16:58:34.822Z,86427.41
2023-07-17T17:01:02.140Z,86430.63
2023-07-17T17:03:28.967Z,86428.53
2023-07-17T17:05:55.831Z,86430.97
2023-07-17T17:08:22.493Z,86418.00
2023-07-17T17:10:49.482Z,86428.16
2023-07-17T17:13:16.116Z,86426.69
2023-07-17T17:15:44.379Z,86426.53
2023-07-17T17:18:12.620Z,86429.25
2023-07-17T17:20:39.279Z,86429.09
2023-07-17T17:23:06.305Z,86426.22
2023-07-17T17:25:33.012Z,86422.00
2023-07-17T17:27:59.679Z,86426.75
2023-07-17T17:30:26.650Z,86421.78
2023-07-17T17:32:53.340Z,86415.53
2023-07-17T17:35:20.096Z,86425.91
2023-07-17T17:37:46.789Z,86425.91
2023-07-17T17:40:14.073Z,86420.47
2023-07-17T17:42:40.743Z,86422.97
2023-07-17T17:45:08.774Z,86425.75
2023-07-17T17:47:35.505Z,86431.16
2023-07-17T17:50:02.172Z,86425.59
2023-07-17T17:52:28.799Z,86418.69
2023-07-17T17:54:55.480Z,86421.47
2023-07-17T17:57:22.147Z,86433.28
2023-07-17T17:59:48.964Z,86438.53
2023-07-17T18:02:17.001Z,86435.84
2023-07-17T18:04:43.859Z,86439.41
2023-07-17T18:07:10.641Z,86441.50
2023-07-17T18:09:37.301Z,86444.63
2023-07-17T18:12:04.404Z,86439.91
2023-07-17T18:14:31.017Z,86444.56
2023-07-17T18:16:58.137Z,86439.53
2023-07-17T18:19:28.350Z,86438.97
2023-07-17T18:21:55.044Z,86443.53
2023-07-17T18:24:22.026Z,86448.28
2023-07-17T18:26:48.679Z,86450.88
2023-07-17T18:29:15.454Z,86457.97
2023-07-17T18:31:42.108Z,86448.16
2023-07-17T18:34:08.970Z,86450.09
2023-07-17T18:36:35.661Z,86457.31
2023-07-17T18:39:02.309Z,86461.19
2023-07-17T18:41:28.975Z,86461.59
2023-07-17T18:43:55.592Z,86461.44
2023-07-17T18:46:22.911Z,86459.88
2023-07-17T18:48:52.386Z,86455.25
2023-07-17T18:51:19.410Z,86459.16
2023-07-17T18:53:46.368Z,86460.97
2023-07-17T18:56:13.066Z,86463.59
2023-07-17T18:58:39.700Z,86465.84
2023-07-17T19:01:06.402Z,86457.53
2023-07-17T19:03:33.632Z,86461.72
2023-07-17T19:06:00.417Z,86464.66
2023-07-17T19:08:27.084Z,86470.69
2023-07-17T19:10:54.170Z,86475.13
2023-07-17T19:13:22.429Z,86471.50
2023-07-17T19:15:49.120Z,86474.22
2023-07-17T19:18:17.153Z,86469.25
2023-07-17T19:20:43.787Z,86467.28
2023-07-17T19:23:10.517Z,86473.88
2023-07-17T19:25:38.668Z,86462.09
2023-07-17T19:28:05.999Z,86471.38
2023-07-17T19:30:32.644Z,86467.59
2023-07-17T19:32:59.266Z,86461.91
2023-07-17T19:35:25.937Z,86472.09
2023-07-17T19:37:52.607Z,86466.47
2023-07-17T19:40:19.304Z,86473.19
2023-07-17T19:42:46.121Z,86471.72
2023-07-17T19:45:12.790Z,86470.84
2023-07-17T19:47:41.314Z,86468.13
2023-07-17T19:50:10.814Z,86466.56
2023-07-17T19:52:37.439Z,86470.38
2023-07-17T19:55:04.230Z,86464.22
2023-07-17T19:57:33.892Z,86465.09
2023-07-17T20:00:00.545Z,86473.69
2023-07-17T20:02:27.888Z,86461.94
2023-07-17T20:04:55.101Z,86462.84
2023-07-17T20:07:21.960Z,86459.63
2023-07-17T20:09:48.655Z,86465.63
2023-07-17T20:12:15.293Z,86460.66
2023-07-17T20:14:42.189Z,86463.25
2023-07-17T20:17:08.834Z,86456.19
2023-07-17T20:19:37.333Z,86460.84
2023-07-17T20:22:04.041Z,86457.91
2023-07-17T20:24:30.729Z,86464.75
2023-07-17T20:26:57.660Z,86458.44
2023-07-17T20:29:25.249Z,86464.31
2023-07-17T20:31:52.050Z,86462.59
2023-07-17T20:34:19.469Z,86457.78
2023-07-17T20:36:46.061Z,86463.75
2023-07-17T20:39:16.088Z,86469.69
2023-07-17T20:41:42.803Z,86466.31
2023-07-17T20:44:09.500Z,86459.78
2023-07-17T20:46:36.187Z,86467.81
2023-07-17T20:49:03.133Z,86461.56
2023-07-17T20:51:29.721Z,86463.44
2023-07-17T20:53:56.460Z,86460.19
2023-07-17T20:56:23.102Z,86460.31
2023-07-17T20:58:52.215Z,86457.66
2023-07-17T21:01:25.954Z,86461.72
2023-07-17T21:03:59.387Z,86462.97
2023-07-17T21:06:26.616Z,86459.34
2023-07-17T21:08:53.574Z,86466.03
2023-07-17T21:11:20.331Z,86459.59
2023-07-17T21:13:47.191Z,86465.53
2023-07-17T21:16:13.819Z,86461.63
2023-07-17T21:18:40.525Z,86459.38
2023-07-17T21:21:07.130Z,86463.91
2023-07-17T21:23:33.758Z,86466.63
2023-07-17T21:26:00.555Z,86471.94
2023-07-17T21:28:27.204Z,86463.06
2023-07-17T21:30:53.867Z,86462.22
2023-07-17T21:33:20.638Z,86466.81
2023-07-17T21:35:47.240Z,86472.09
2023-07-17T21:38:14.004Z,86465.78
2023-07-17T21:40:40.614Z,86468.41
2023-07-17T21:43:07.367Z,86458.78
2023-07-17T21:45:34.017Z,86454.78
2023-07-17T21:48:00.682Z,86453.09
2023-07-17T21:50:27.379Z,86455.81
2023-07-17T21:52:53.984Z,86454.19
2023-07-17T21:55:20.831Z,86455.94
2023-07-17T21:57:47.483Z,86447.16
2023-07-17T22:00:14.404Z,86452.63
2023-07-17T22:02:43.881Z,86447.78
2023-07-17T22:05:12.789Z,86437.31
2023-07-17T22:07:39.562Z,86454.88
2023-07-17T22:10:06.418Z,86449.81
2023-07-17T22:12:33.299Z,86449.81
2023-07-17T22:14:59.961Z,86440.00
2023-07-17T22:17:26.720Z,86449.53
2023-07-17T22:19:53.494Z,86449.53
2023-07-17T22:22:20.827Z,86445.19
2023-07-17T22:24:48.656Z,86443.47
2023-07-17T22:27:15.352Z,86452.84
2023-07-17T22:29:42.002Z,86444.75
2023-07-17T22:32:08.634Z,86440.53
2023-07-17T22:34:35.356Z,86441.72
2023-07-17T22:37:03.901Z,86448.91
2023-07-17T22:39:31.061Z,86440.00
2023-07-17T22:41:57.778Z,86441.16
2023-07-17T22:44:24.606Z,86441.72
2023-07-17T22:46:51.384Z,86440.31
2023-07-17T22:49:18.134Z,86439.63
2023-07-17T22:51:44.754Z,86445.06
2023-07-17T22:54:13.163Z,86444.69
2023-07-17T22:56:39.822Z,86442.59
2023-07-17T22:59:06.420Z,86439.91
2023-07-17T23:01:33.080Z,86440.56
2023-07-17T23:03:59.743Z,86436.34
2023-07-17T23:06:26.979Z,86437.75
2023-07-17T23:08:54.477Z,86435.03
2023-07-17T23:11:21.418Z,86434.88
2023-07-17T23:13:48.328Z,86434.41
2023-07-17T23:16:15.153Z,86440.50
2023-07-17T23:18:41.824Z,86440.25
2023-07-17T23:21:09.161Z,86443.25
2023-07-17T23:23:36.005Z,86446.97
2023-07-17T23:26:02.632Z,86448.22
2023-07-17T23:28:29.660Z,86445.91
2023-07-17T23:30:56.853Z,86436.31
2023-07-17T23:33:24.336Z,86434.69
2023-07-17T23:35:51.035Z,86434.56
2023-07-17T23:38:17.648Z,86432.38
2023-07-17T23:40:45.265Z,86437.22
2023-07-17T23:43:13.668Z,86432.94
2023-07-17T23:45:41.740Z,86434.28
2023-07-17T23:48:09.120Z,86431.41
2023-07-17T23:50:37.313Z,86432.72
2023-07-17T23:53:04.066Z,86435.31
2023-07-17T23:55:32.581Z,86429.63
2023-07-17T23:58:05.226Z,86423.31
